sensor_id;sensor_type;location;lat;lon;timestamp;temperature;humidity
63704;SHT31;49851;53.684;10.216;2022-11-20T00:01:12;2.60;85.94
63704;SHT31;49851;53.684;10.216;2022-11-20T00:03:37;2.58;86.05
63704;SHT31;49851;53.684;10.216;2022-11-20T00:06:04;2.56;86.27
63704;SHT31;49851;53.684;10.216;2022-11-20T00:08:29;2.57;86.10
63704;SHT31;49851;53.684;10.216;2022-11-20T00:10:54;2.57;86.27
63704;SHT31;49851;53.684;10.216;2022-11-20T00:13:20;2.56;86.28
63704;SHT31;49851;53.684;10.216;2022-11-20T00:15:45;2.56;86.21
63704;SHT31;49851;53.684;10.216;2022-11-20T00:18:10;2.60;85.96
63704;SHT31;49851;53.684;10.216;2022-11-20T00:20:35;2.58;85.96
63704;SHT31;49851;53.684;10.216;2022-11-20T00:23:01;2.57;85.97
63704;SHT31;49851;53.684;10.216;2022-11-20T00:25:26;2.58;86.09
63704;SHT31;49851;53.684;10.216;2022-11-20T00:27:51;2.60;86.19
63704;SHT31;49851;53.684;10.216;2022-11-20T00:30:16;2.58;86.22
63704;SHT31;49851;53.684;10.216;2022-11-20T00:32:42;2.60;86.28
63704;SHT31;49851;53.684;10.216;2022-11-20T00:35:07;2.58;86.41
63704;SHT31;49851;53.684;10.216;2022-11-20T00:37:32;2.57;86.37
63704;SHT31;49851;53.684;10.216;2022-11-20T00:39:57;2.56;86.47
63704;SHT31;49851;53.684;10.216;2022-11-20T00:42:23;2.58;86.49
63704;SHT31;49851;53.684;10.216;2022-11-20T00:44:48;2.54;86.48
63704;SHT31;49851;53.684;10.216;2022-11-20T00:47:13;2.61;86.46
63704;SHT31;49851;53.684;10.216;2022-11-20T00:49:38;2.57;86.45
63704;SHT31;49851;53.684;10.216;2022-11-20T00:52:04;2.56;86.47
63704;SHT31;49851;53.684;10.216;2022-11-20T00:54:29;2.58;86.44
63704;SHT31;49851;53.684;10.216;2022-11-20T00:56:54;2.57;86.43
63704;SHT31;49851;53.684;10.216;2022-11-20T00:59:19;2.54;86.46
63704;SHT31;49851;53.684;10.216;2022-11-20T01:01:44;2.51;86.45
63704;SHT31;49851;53.684;10.216;2022-11-20T01:04:10;2.53;86.58
63704;SHT31;49851;53.684;10.216;2022-11-20T01:06:36;2.53;86.55
63704;SHT31;49851;53.684;10.216;2022-11-20T01:09:04;2.54;86.61
63704;SHT31;49851;53.684;10.216;2022-11-20T01:11:30;2.50;86.68
63704;SHT31;49851;53.684;10.216;2022-11-20T01:13:56;2.51;86.65
63704;SHT31;49851;53.684;10.216;2022-11-20T01:16:26;2.51;86.79
63704;SHT31;49851;53.684;10.216;2022-11-20T01:18:52;2.53;86.70
63704;SHT31;49851;53.684;10.216;2022-11-20T01:21:19;2.49;86.70
63704;SHT31;49851;53.684;10.216;2022-11-20T01:23:45;2.50;86.74
63704;SHT31;49851;53.684;10.216;2022-11-20T01:26:11;2.50;86.83
63704;SHT31;49851;53.684;10.216;2022-11-20T01:28:37;2.50;86.88
63704;SHT31;49851;53.684;10.216;2022-11-20T01:31:09;2.49;86.99
63704;SHT31;49851;53.684;10.216;2022-11-20T01:33:36;2.49;87.11
63704;SHT31;49851;53.684;10.216;2022-11-20T01:36:04;2.50;87.10
63704;SHT31;49851;53.684;10.216;2022-11-20T01:38:30;2.53;87.08
63704;SHT31;49851;53.684;10.216;2022-11-20T01:40:55;2.54;87.22
63704;SHT31;49851;53.684;10.216;2022-11-20T01:43:21;2.49;87.22
63704;SHT31;49851;53.684;10.216;2022-11-20T01:48:12;2.46;87.44
63704;SHT31;49851;53.684;10.216;2022-11-20T01:50:37;2.43;87.48
63704;SHT31;49851;53.684;10.216;2022-11-20T01:53:06;2.46;87.61
63704;SHT31;49851;53.684;10.216;2022-11-20T01:55:37;2.47;87.73
63704;SHT31;49851;53.684;10.216;2022-11-20T01:58:04;2.47;87.79
63704;SHT31;49851;53.684;10.216;2022-11-20T02:00:29;2.47;87.80
63704;SHT31;49851;53.684;10.216;2022-11-20T02:02:56;2.46;87.84
63704;SHT31;49851;53.684;10.216;2022-11-20T02:07:47;2.44;87.75
63704;SHT31;49851;53.684;10.216;2022-11-20T02:10:13;2.43;87.73
63704;SHT31;49851;53.684;10.216;2022-11-20T02:12:39;2.42;87.81
63704;SHT31;49851;53.684;10.216;2022-11-20T02:15:22;2.46;87.85
63704;SHT31;49851;53.684;10.216;2022-11-20T02:17:48;2.39;87.74
63704;SHT31;49851;53.684;10.216;2022-11-20T02:20:13;2.43;87.84
63704;SHT31;49851;53.684;10.216;2022-11-20T02:22:42;2.39;87.89
63704;SHT31;49851;53.684;10.216;2022-11-20T02:25:09;2.39;87.98
63704;SHT31;49851;53.684;10.216;2022-11-20T02:27:34;2.39;88.07
63704;SHT31;49851;53.684;10.216;2022-11-20T02:30:04;2.40;87.89
63704;SHT31;49851;53.684;10.216;2022-11-20T02:32:33;2.36;87.97
63704;SHT31;49851;53.684;10.216;2022-11-20T02:35:05;2.34;88.11
63704;SHT31;49851;53.684;10.216;2022-11-20T02:37:32;2.32;88.06
63704;SHT31;49851;53.684;10.216;2022-11-20T02:39:59;2.30;88.12
63704;SHT31;49851;53.684;10.216;2022-11-20T02:42:24;2.29;88.13
63704;SHT31;49851;53.684;10.216;2022-11-20T02:44:49;2.29;88.24
63704;SHT31;49851;53.684;10.216;2022-11-20T02:47:14;2.32;88.35
63704;SHT31;49851;53.684;10.216;2022-11-20T02:49:39;2.29;88.28
63704;SHT31;49851;53.684;10.216;2022-11-20T02:52:05;2.29;88.46
63704;SHT31;49851;53.684;10.216;2022-11-20T02:54:30;2.29;88.33
63704;SHT31;49851;53.684;10.216;2022-11-20T02:56:55;2.26;88.41
63704;SHT31;49851;53.684;10.216;2022-11-20T02:59:21;2.29;88.62
63704;SHT31;49851;53.684;10.216;2022-11-20T03:01:46;2.29;88.60
63704;SHT31;49851;53.684;10.216;2022-11-20T03:04:11;2.32;88.79
63704;SHT31;49851;53.684;10.216;2022-11-20T03:06:36;2.30;88.54
63704;SHT31;49851;53.684;10.216;2022-11-20T03:09:02;2.28;88.60
63704;SHT31;49851;53.684;10.216;2022-11-20T03:11:27;2.29;88.67
63704;SHT31;49851;53.684;10.216;2022-11-20T03:13:53;2.30;88.66
63704;SHT31;49851;53.684;10.216;2022-11-20T03:16:19;2.28;88.49
63704;SHT31;49851;53.684;10.216;2022-11-20T03:18:45;2.26;88.45
63704;SHT31;49851;53.684;10.216;2022-11-20T03:21:11;2.26;88.68
63704;SHT31;49851;53.684;10.216;2022-11-20T03:23:37;2.28;88.89
63704;SHT31;49851;53.684;10.216;2022-11-20T03:26:13;2.28;89.02
63704;SHT31;49851;53.684;10.216;2022-11-20T03:28:40;2.28;88.64
63704;SHT31;49851;53.684;10.216;2022-11-20T03:31:09;2.28;88.81
63704;SHT31;49851;53.684;10.216;2022-11-20T03:33:35;2.23;88.73
63704;SHT31;49851;53.684;10.216;2022-11-20T03:36:01;2.25;88.76
63704;SHT31;49851;53.684;10.216;2022-11-20T03:38:28;2.22;88.71
63704;SHT31;49851;53.684;10.216;2022-11-20T03:40:57;2.19;88.76
63704;SHT31;49851;53.684;10.216;2022-11-20T03:43:22;2.21;88.80
63704;SHT31;49851;53.684;10.216;2022-11-20T03:45:47;2.22;88.84
63704;SHT31;49851;53.684;10.216;2022-11-20T03:48:13;2.21;88.89
63704;SHT31;49851;53.684;10.216;2022-11-20T03:50:38;2.22;89.02
63704;SHT31;49851;53.684;10.216;2022-11-20T03:53:03;2.22;88.91
63704;SHT31;49851;53.684;10.216;2022-11-20T03:55:28;2.22;88.98
63704;SHT31;49851;53.684;10.216;2022-11-20T03:57:54;2.21;88.89
63704;SHT31;49851;53.684;10.216;2022-11-20T04:00:19;2.19;88.98
63704;SHT31;49851;53.684;10.216;2022-11-20T04:02:44;2.21;88.90
63704;SHT31;49851;53.684;10.216;2022-11-20T04:05:09;2.21;88.93
63704;SHT31;49851;53.684;10.216;2022-11-20T04:07:34;2.18;88.89
63704;SHT31;49851;53.684;10.216;2022-11-20T04:10:00;2.16;88.90
63704;SHT31;49851;53.684;10.216;2022-11-20T04:12:25;2.18;89.09
63704;SHT31;49851;53.684;10.216;2022-11-20T04:14:50;2.16;89.03
63704;SHT31;49851;53.684;10.216;2022-11-20T04:17:16;2.16;89.02
63704;SHT31;49851;53.684;10.216;2022-11-20T04:19:41;2.16;89.24
63704;SHT31;49851;53.684;10.216;2022-11-20T04:22:06;2.16;89.21
63704;SHT31;49851;53.684;10.216;2022-11-20T04:24:31;2.16;89.14
63704;SHT31;49851;53.684;10.216;2022-11-20T04:26:57;2.18;89.14
63704;SHT31;49851;53.684;10.216;2022-11-20T04:29:22;2.15;89.09
63704;SHT31;49851;53.684;10.216;2022-11-20T04:31:47;2.12;88.90
63704;SHT31;49851;53.684;10.216;2022-11-20T04:34:12;2.12;89.07
63704;SHT31;49851;53.684;10.216;2022-11-20T04:36:38;2.09;89.19
63704;SHT31;49851;53.684;10.216;2022-11-20T04:39:04;2.09;89.17
63704;SHT31;49851;53.684;10.216;2022-11-20T04:41:30;2.09;89.15
63704;SHT31;49851;53.684;10.216;2022-11-20T04:43:56;2.08;89.28
63704;SHT31;49851;53.684;10.216;2022-11-20T04:46:24;2.06;89.42
63704;SHT31;49851;53.684;10.216;2022-11-20T04:48:49;2.08;89.41
63704;SHT31;49851;53.684;10.216;2022-11-20T04:51:15;2.05;89.31
63704;SHT31;49851;53.684;10.216;2022-11-20T04:53:40;2.01;89.20
63704;SHT31;49851;53.684;10.216;2022-11-20T04:56:06;2.01;89.49
63704;SHT31;49851;53.684;10.216;2022-11-20T04:58:32;2.01;89.61
63704;SHT31;49851;53.684;10.216;2022-11-20T05:01:05;2.01;89.49
63704;SHT31;49851;53.684;10.216;2022-11-20T05:03:31;2.02;89.58
63704;SHT31;49851;53.684;10.216;2022-11-20T05:05:56;2.02;89.69
63704;SHT31;49851;53.684;10.216;2022-11-20T05:08:24;2.04;89.65
63704;SHT31;49851;53.684;10.216;2022-11-20T05:10:49;2.02;89.43
63704;SHT31;49851;53.684;10.216;2022-11-20T05:13:15;2.02;89.41
63704;SHT31;49851;53.684;10.216;2022-11-20T05:15:40;1.98;89.48
63704;SHT31;49851;53.684;10.216;2022-11-20T05:18:05;1.95;89.45
63704;SHT31;49851;53.684;10.216;2022-11-20T05:20:30;1.97;89.37
63704;SHT31;49851;53.684;10.216;2022-11-20T05:22:58;1.97;89.51
63704;SHT31;49851;53.684;10.216;2022-11-20T05:25:24;1.93;89.56
63704;SHT31;49851;53.684;10.216;2022-11-20T05:27:49;1.93;89.55
63704;SHT31;49851;53.684;10.216;2022-11-20T05:30:14;1.93;89.65
63704;SHT31;49851;53.684;10.216;2022-11-20T05:32:40;1.93;89.72
63704;SHT31;49851;53.684;10.216;2022-11-20T05:35:05;1.91;89.72
63704;SHT31;49851;53.684;10.216;2022-11-20T05:37:30;1.95;89.91
63704;SHT31;49851;53.684;10.216;2022-11-20T05:39:55;1.93;89.88
63704;SHT31;49851;53.684;10.216;2022-11-20T05:42:21;1.91;89.76
63704;SHT31;49851;53.684;10.216;2022-11-20T05:44:55;1.89;89.71
63704;SHT31;49851;53.684;10.216;2022-11-20T05:47:20;1.88;89.79
63704;SHT31;49851;53.684;10.216;2022-11-20T05:49:45;1.88;89.83
63704;SHT31;49851;53.684;10.216;2022-11-20T05:52:10;1.88;89.81
63704;SHT31;49851;53.684;10.216;2022-11-20T05:54:35;1.88;89.62
63704;SHT31;49851;53.684;10.216;2022-11-20T05:57:01;1.88;89.65
63704;SHT31;49851;53.684;10.216;2022-11-20T05:59:26;1.89;89.68
63704;SHT31;49851;53.684;10.216;2022-11-20T06:01:51;1.87;89.67
63704;SHT31;49851;53.684;10.216;2022-11-20T06:04:16;1.84;89.44
63704;SHT31;49851;53.684;10.216;2022-11-20T06:06:42;1.85;89.66
63704;SHT31;49851;53.684;10.216;2022-11-20T06:09:07;1.87;89.69
63704;SHT31;49851;53.684;10.216;2022-11-20T06:11:32;1.85;89.55
63704;SHT31;49851;53.684;10.216;2022-11-20T06:13:57;1.85;89.79
63704;SHT31;49851;53.684;10.216;2022-11-20T06:16:23;1.85;89.83
63704;SHT31;49851;53.684;10.216;2022-11-20T06:18:48;1.84;89.83
63704;SHT31;49851;53.684;10.216;2022-11-20T06:21:17;1.87;89.81
63704;SHT31;49851;53.684;10.216;2022-11-20T06:23:42;1.87;89.76
63704;SHT31;49851;53.684;10.216;2022-11-20T06:26:12;1.85;89.66
63704;SHT31;49851;53.684;10.216;2022-11-20T06:28:37;1.82;89.69
63704;SHT31;49851;53.684;10.216;2022-11-20T06:31:03;1.85;89.59
63704;SHT31;49851;53.684;10.216;2022-11-20T06:33:28;1.84;89.74
63704;SHT31;49851;53.684;10.216;2022-11-20T06:35:57;1.81;89.70
63704;SHT31;49851;53.684;10.216;2022-11-20T06:38:23;1.82;89.82
63704;SHT31;49851;53.684;10.216;2022-11-20T06:40:48;1.84;89.76
63704;SHT31;49851;53.684;10.216;2022-11-20T06:43:14;1.85;89.83
63704;SHT31;49851;53.684;10.216;2022-11-20T06:45:39;1.80;89.72
63704;SHT31;49851;53.684;10.216;2022-11-20T06:48:04;1.81;89.70
63704;SHT31;49851;53.684;10.216;2022-11-20T06:50:29;1.81;89.75
63704;SHT31;49851;53.684;10.216;2022-11-20T06:52:55;1.82;89.75
63704;SHT31;49851;53.684;10.216;2022-11-20T06:55:20;1.82;89.84
63704;SHT31;49851;53.684;10.216;2022-11-20T06:57:45;1.84;89.93
63704;SHT31;49851;53.684;10.216;2022-11-20T07:00:10;1.85;89.78
63704;SHT31;49851;53.684;10.216;2022-11-20T07:02:36;1.80;89.55
63704;SHT31;49851;53.684;10.216;2022-11-20T07:05:01;1.81;89.49
63704;SHT31;49851;53.684;10.216;2022-11-20T07:07:26;1.81;89.66
63704;SHT31;49851;53.684;10.216;2022-11-20T07:09:52;1.82;89.74
63704;SHT31;49851;53.684;10.216;2022-11-20T07:12:17;1.87;89.86
63704;SHT31;49851;53.684;10.216;2022-11-20T07:14:42;1.89;89.76
63704;SHT31;49851;53.684;10.216;2022-11-20T07:17:07;1.89;89.82
63704;SHT31;49851;53.684;10.216;2022-11-20T07:19:33;1.87;89.72
63704;SHT31;49851;53.684;10.216;2022-11-20T07:21:58;1.88;89.77
63704;SHT31;49851;53.684;10.216;2022-11-20T07:24:23;1.87;89.65
63704;SHT31;49851;53.684;10.216;2022-11-20T07:26:48;1.91;89.63
63704;SHT31;49851;53.684;10.216;2022-11-20T07:29:14;1.91;89.59
63704;SHT31;49851;53.684;10.216;2022-11-20T07:31:39;1.93;89.45
63704;SHT31;49851;53.684;10.216;2022-11-20T07:34:05;1.88;89.42
63704;SHT31;49851;53.684;10.216;2022-11-20T07:36:30;1.88;89.47
63704;SHT31;49851;53.684;10.216;2022-11-20T07:38:55;1.88;89.53
63704;SHT31;49851;53.684;10.216;2022-11-20T07:41:20;1.85;89.55
63704;SHT31;49851;53.684;10.216;2022-11-20T07:43:46;1.88;89.58
63704;SHT31;49851;53.684;10.216;2022-11-20T07:46:11;1.87;89.55
63704;SHT31;49851;53.684;10.216;2022-11-20T07:48:36;1.88;89.60
63704;SHT31;49851;53.684;10.216;2022-11-20T07:51:01;1.87;89.79
63704;SHT31;49851;53.684;10.216;2022-11-20T07:53:26;1.88;89.83
63704;SHT31;49851;53.684;10.216;2022-11-20T07:55:52;1.89;89.85
63704;SHT31;49851;53.684;10.216;2022-11-20T07:58:17;1.88;89.82
63704;SHT31;49851;53.684;10.216;2022-11-20T08:00:43;1.88;90.02
63704;SHT31;49851;53.684;10.216;2022-11-20T08:03:08;1.93;89.93
63704;SHT31;49851;53.684;10.216;2022-11-20T08:05:33;1.89;90.16
63704;SHT31;49851;53.684;10.216;2022-11-20T08:07:58;1.98;90.28
63704;SHT31;49851;53.684;10.216;2022-11-20T08:10:24;1.98;90.13
63704;SHT31;49851;53.684;10.216;2022-11-20T08:12:50;1.98;90.09
63704;SHT31;49851;53.684;10.216;2022-11-20T08:15:36;1.97;90.11
63704;SHT31;49851;53.684;10.216;2022-11-20T08:18:05;2.02;90.40
63704;SHT31;49851;53.684;10.216;2022-11-20T08:20:31;2.01;90.43
63704;SHT31;49851;53.684;10.216;2022-11-20T08:23:00;2.04;90.30
63704;SHT31;49851;53.684;10.216;2022-11-20T08:25:26;2.08;90.34
63704;SHT31;49851;53.684;10.216;2022-11-20T08:27:52;2.05;90.02
63704;SHT31;49851;53.684;10.216;2022-11-20T08:30:17;2.05;90.11
63704;SHT31;49851;53.684;10.216;2022-11-20T08:32:42;2.08;90.09
63704;SHT31;49851;53.684;10.216;2022-11-20T08:35:07;2.05;90.11
63704;SHT31;49851;53.684;10.216;2022-11-20T08:37:33;2.04;90.10
63704;SHT31;49851;53.684;10.216;2022-11-20T08:39:58;2.04;90.39
63704;SHT31;49851;53.684;10.216;2022-11-20T08:42:23;2.08;90.63
63704;SHT31;49851;53.684;10.216;2022-11-20T08:44:48;2.04;89.95
63704;SHT31;49851;53.684;10.216;2022-11-20T08:47:14;2.08;90.33
63704;SHT31;49851;53.684;10.216;2022-11-20T08:49:39;2.11;90.25
63704;SHT31;49851;53.684;10.216;2022-11-20T08:52:04;2.12;90.17
63704;SHT31;49851;53.684;10.216;2022-11-20T08:54:30;2.11;90.07
63704;SHT31;49851;53.684;10.216;2022-11-20T08:56:55;2.08;89.88
63704;SHT31;49851;53.684;10.216;2022-11-20T08:59:21;2.09;90.21
63704;SHT31;49851;53.684;10.216;2022-11-20T09:01:46;2.11;90.43
63704;SHT31;49851;53.684;10.216;2022-11-20T09:04:11;2.11;90.43
63704;SHT31;49851;53.684;10.216;2022-11-20T09:06:39;2.11;90.56
63704;SHT31;49851;53.684;10.216;2022-11-20T09:09:04;2.09;90.46
63704;SHT31;49851;53.684;10.216;2022-11-20T09:11:30;2.11;90.40
63704;SHT31;49851;53.684;10.216;2022-11-20T09:13:55;2.15;90.71
63704;SHT31;49851;53.684;10.216;2022-11-20T09:16:21;2.14;90.66
63704;SHT31;49851;53.684;10.216;2022-11-20T09:18:46;2.15;90.45
63704;SHT31;49851;53.684;10.216;2022-11-20T09:21:12;2.18;90.70
63704;SHT31;49851;53.684;10.216;2022-11-20T09:23:38;2.16;90.44
63704;SHT31;49851;53.684;10.216;2022-11-20T09:26:08;2.15;90.31
63704;SHT31;49851;53.684;10.216;2022-11-20T09:28:34;2.23;90.74
63704;SHT31;49851;53.684;10.216;2022-11-20T09:30:59;2.21;90.49
63704;SHT31;49851;53.684;10.216;2022-11-20T09:33:25;2.22;90.53
63704;SHT31;49851;53.684;10.216;2022-11-20T09:35:50;2.21;90.50
63704;SHT31;49851;53.684;10.216;2022-11-20T09:38:15;2.25;90.67
63704;SHT31;49851;53.684;10.216;2022-11-20T09:40:43;2.26;90.58
63704;SHT31;49851;53.684;10.216;2022-11-20T09:43:12;2.22;90.52
63704;SHT31;49851;53.684;10.216;2022-11-20T09:45:44;2.25;90.76
63704;SHT31;49851;53.684;10.216;2022-11-20T09:48:22;2.28;90.59
63704;SHT31;49851;53.684;10.216;2022-11-20T09:53:42;2.33;90.76
63704;SHT31;49851;53.684;10.216;2022-11-20T09:56:11;2.39;90.98
63704;SHT31;49851;53.684;10.216;2022-11-20T09:58:44;2.40;90.60
63704;SHT31;49851;53.684;10.216;2022-11-20T10:01:14;2.43;90.49
63704;SHT31;49851;53.684;10.216;2022-11-20T10:03:57;2.50;90.40
63704;SHT31;49851;53.684;10.216;2022-11-20T10:06:30;2.49;89.91
63704;SHT31;49851;53.684;10.216;2022-11-20T10:11:51;2.47;89.92
63704;SHT31;49851;53.684;10.216;2022-11-20T10:17:02;2.53;90.31
63704;SHT31;49851;53.684;10.216;2022-11-20T10:24:41;2.56;90.14
63704;SHT31;49851;53.684;10.216;2022-11-20T10:29:46;2.54;89.61
63704;SHT31;49851;53.684;10.216;2022-11-20T10:32:19;2.53;89.61
63704;SHT31;49851;53.684;10.216;2022-11-20T10:34:58;2.50;89.67
63704;SHT31;49851;53.684;10.216;2022-11-20T10:37:25;2.47;89.90
63704;SHT31;49851;53.684;10.216;2022-11-20T10:39:56;2.53;90.01
63704;SHT31;49851;53.684;10.216;2022-11-20T10:42:28;2.50;90.20
63704;SHT31;49851;53.684;10.216;2022-11-20T10:44:58;2.53;90.13
63704;SHT31;49851;53.684;10.216;2022-11-20T10:47:26;2.50;90.22
63704;SHT31;49851;53.684;10.216;2022-11-20T10:49:53;2.51;90.35
63704;SHT31;49851;53.684;10.216;2022-11-20T10:52:41;2.53;90.28
63704;SHT31;49851;53.684;10.216;2022-11-20T10:55:18;2.60;90.42
63704;SHT31;49851;53.684;10.216;2022-11-20T11:00:21;2.68;90.30
63704;SHT31;49851;53.684;10.216;2022-11-20T11:02:47;2.70;90.23
63704;SHT31;49851;53.684;10.216;2022-11-20T11:05:18;2.70;89.69
63704;SHT31;49851;53.684;10.216;2022-11-20T11:07:51;2.78;89.69
63704;SHT31;49851;53.684;10.216;2022-11-20T11:10:18;2.80;89.78
63704;SHT31;49851;53.684;10.216;2022-11-20T11:12:46;2.80;89.70
63704;SHT31;49851;53.684;10.216;2022-11-20T11:15:24;2.83;89.79
63704;SHT31;49851;53.684;10.216;2022-11-20T11:17:50;2.89;90.07
63704;SHT31;49851;53.684;10.216;2022-11-20T11:20:17;2.94;90.28
63704;SHT31;49851;53.684;10.216;2022-11-20T11:22:50;2.95;90.03
63704;SHT31;49851;53.684;10.216;2022-11-20T11:25:23;2.99;89.99
63704;SHT31;49851;53.684;10.216;2022-11-20T11:27:49;3.01;89.88
63704;SHT31;49851;53.684;10.216;2022-11-20T11:30:15;3.05;89.68
63704;SHT31;49851;53.684;10.216;2022-11-20T11:32:41;3.08;89.60
63704;SHT31;49851;53.684;10.216;2022-11-20T11:35:17;3.08;89.53
63704;SHT31;49851;53.684;10.216;2022-11-20T11:37:43;3.09;89.36
63704;SHT31;49851;53.684;10.216;2022-11-20T11:40:10;3.12;89.09
63704;SHT31;49851;53.684;10.216;2022-11-20T11:42:39;3.13;88.96
63704;SHT31;49851;53.684;10.216;2022-11-20T11:45:06;3.16;88.02
63704;SHT31;49851;53.684;10.216;2022-11-20T11:47:33;3.08;87.96
63704;SHT31;49851;53.684;10.216;2022-11-20T11:50:02;3.11;87.18
63704;SHT31;49851;53.684;10.216;2022-11-20T11:52:27;3.11;87.31
63704;SHT31;49851;53.684;10.216;2022-11-20T11:54:53;3.12;87.25
63704;SHT31;49851;53.684;10.216;2022-11-20T11:57:24;3.12;87.22
63704;SHT31;49851;53.684;10.216;2022-11-20T12:07:45;3.16;86.75
63704;SHT31;49851;53.684;10.216;2022-11-20T12:10:16;3.12;87.29
63704;SHT31;49851;53.684;10.216;2022-11-20T12:12:44;3.09;87.63
63704;SHT31;49851;53.684;10.216;2022-11-20T12:15:12;3.09;87.17
63704;SHT31;49851;53.684;10.216;2022-11-20T12:17:38;3.08;86.84
63704;SHT31;49851;53.684;10.216;2022-11-20T12:20:05;3.08;86.63
63704;SHT31;49851;53.684;10.216;2022-11-20T12:25:12;3.06;86.06
63704;SHT31;49851;53.684;10.216;2022-11-20T12:30:17;3.01;86.79
63704;SHT31;49851;53.684;10.216;2022-11-20T12:38:34;3.06;87.34
63704;SHT31;49851;53.684;10.216;2022-11-20T12:44:10;3.11;87.62
63704;SHT31;49851;53.684;10.216;2022-11-20T12:52:17;3.19;87.43
63704;SHT31;49851;53.684;10.216;2022-11-20T12:57:15;3.22;87.41
63704;SHT31;49851;53.684;10.216;2022-11-20T13:02:17;3.26;87.47
63704;SHT31;49851;53.684;10.216;2022-11-20T13:07:29;3.27;87.38
63704;SHT31;49851;53.684;10.216;2022-11-20T13:09:55;3.34;87.15
63704;SHT31;49851;53.684;10.216;2022-11-20T13:12:27;3.31;86.79
63704;SHT31;49851;53.684;10.216;2022-11-20T13:15:08;3.30;86.74
63704;SHT31;49851;53.684;10.216;2022-11-20T13:17:51;3.29;87.01
63704;SHT31;49851;53.684;10.216;2022-11-20T13:20:19;3.27;87.10
63704;SHT31;49851;53.684;10.216;2022-11-20T13:22:53;3.27;87.12
63704;SHT31;49851;53.684;10.216;2022-11-20T13:25:26;3.31;87.17
63704;SHT31;49851;53.684;10.216;2022-11-20T13:27:52;3.36;86.84
63704;SHT31;49851;53.684;10.216;2022-11-20T13:30:21;3.44;84.93
63704;SHT31;49851;53.684;10.216;2022-11-20T13:32:47;3.40;85.55
63704;SHT31;49851;53.684;10.216;2022-11-20T13:35:13;3.39;84.77
63704;SHT31;49851;53.684;10.216;2022-11-20T13:37:48;3.41;84.27
63704;SHT31;49851;53.684;10.216;2022-11-20T13:40:24;3.34;84.03
63704;SHT31;49851;53.684;10.216;2022-11-20T13:43:04;3.33;84.59
63704;SHT31;49851;53.684;10.216;2022-11-20T13:45:32;3.27;84.85
63704;SHT31;49851;53.684;10.216;2022-11-20T13:48:00;3.22;85.20
63704;SHT31;49851;53.684;10.216;2022-11-20T14:01:06;3.15;85.62
63704;SHT31;49851;53.684;10.216;2022-11-20T14:03:33;3.13;85.49
63704;SHT31;49851;53.684;10.216;2022-11-20T14:05:59;3.13;86.00
63704;SHT31;49851;53.684;10.216;2022-11-20T14:11:05;3.09;86.36
63704;SHT31;49851;53.684;10.216;2022-11-20T14:13:31;3.11;86.43
63704;SHT31;49851;53.684;10.216;2022-11-20T14:15:57;3.15;86.64
63704;SHT31;49851;53.684;10.216;2022-11-20T14:18:22;3.11;86.78
63704;SHT31;49851;53.684;10.216;2022-11-20T14:20:47;3.13;86.94
63704;SHT31;49851;53.684;10.216;2022-11-20T14:23:23;3.13;87.05
63704;SHT31;49851;53.684;10.216;2022-11-20T14:25:48;3.12;87.05
63704;SHT31;49851;53.684;10.216;2022-11-20T14:28:19;3.15;87.12
63704;SHT31;49851;53.684;10.216;2022-11-20T14:30:47;3.15;87.13
63704;SHT31;49851;53.684;10.216;2022-11-20T14:33:13;3.18;86.97
63704;SHT31;49851;53.684;10.216;2022-11-20T14:35:49;3.16;87.06
63704;SHT31;49851;53.684;10.216;2022-11-20T14:38:16;3.19;87.05
63704;SHT31;49851;53.684;10.216;2022-11-20T14:40:42;3.18;86.93
63704;SHT31;49851;53.684;10.216;2022-11-20T14:45:46;3.22;86.37
63704;SHT31;49851;53.684;10.216;2022-11-20T14:48:13;3.19;85.99
63704;SHT31;49851;53.684;10.216;2022-11-20T14:50:39;3.20;86.18
63704;SHT31;49851;53.684;10.216;2022-11-20T14:53:04;3.18;86.02
63704;SHT31;49851;53.684;10.216;2022-11-20T14:55:31;3.19;86.14
63704;SHT31;49851;53.684;10.216;2022-11-20T14:57:58;3.18;86.01
63704;SHT31;49851;53.684;10.216;2022-11-20T15:00:24;3.16;86.00
63704;SHT31;49851;53.684;10.216;2022-11-20T15:02:50;3.16;86.17
63704;SHT31;49851;53.684;10.216;2022-11-20T15:05:16;3.16;86.49
63704;SHT31;49851;53.684;10.216;2022-11-20T15:07:43;3.15;86.70
63704;SHT31;49851;53.684;10.216;2022-11-20T15:12:46;3.15;86.60
63704;SHT31;49851;53.684;10.216;2022-11-20T15:15:12;3.13;86.69
63704;SHT31;49851;53.684;10.216;2022-11-20T15:17:40;3.12;86.69
63704;SHT31;49851;53.684;10.216;2022-11-20T15:20:06;3.12;86.70
63704;SHT31;49851;53.684;10.216;2022-11-20T15:22:35;3.13;86.66
63704;SHT31;49851;53.684;10.216;2022-11-20T15:25:00;3.13;86.67
63704;SHT31;49851;53.684;10.216;2022-11-20T15:27:25;3.13;86.73
63704;SHT31;49851;53.684;10.216;2022-11-20T15:29:50;3.15;86.77
63704;SHT31;49851;53.684;10.216;2022-11-20T15:32:15;3.13;86.74
63704;SHT31;49851;53.684;10.216;2022-11-20T15:34:41;3.13;86.59
63704;SHT31;49851;53.684;10.216;2022-11-20T15:37:06;3.15;86.42
63704;SHT31;49851;53.684;10.216;2022-11-20T15:39:31;3.15;86.42
63704;SHT31;49851;53.684;10.216;2022-11-20T15:41:57;3.12;86.36
63704;SHT31;49851;53.684;10.216;2022-11-20T15:44:22;3.15;86.51
63704;SHT31;49851;53.684;10.216;2022-11-20T15:46:47;3.12;86.52
63704;SHT31;49851;53.684;10.216;2022-11-20T15:49:14;3.09;86.53
63704;SHT31;49851;53.684;10.216;2022-11-20T15:51:43;3.11;86.76
63704;SHT31;49851;53.684;10.216;2022-11-20T15:54:19;3.08;86.54
63704;SHT31;49851;53.684;10.216;2022-11-20T15:56:45;3.12;86.29
63704;SHT31;49851;53.684;10.216;2022-11-20T15:59:10;3.09;86.46
63704;SHT31;49851;53.684;10.216;2022-11-20T16:01:36;3.12;86.38
63704;SHT31;49851;53.684;10.216;2022-11-20T16:04:01;3.13;86.02
63704;SHT31;49851;53.684;10.216;2022-11-20T16:06:26;3.13;86.04
63704;SHT31;49851;53.684;10.216;2022-11-20T16:08:52;3.06;86.37
63704;SHT31;49851;53.684;10.216;2022-11-20T16:11:17;3.09;86.14
63704;SHT31;49851;53.684;10.216;2022-11-20T16:13:43;3.11;86.01
63704;SHT31;49851;53.684;10.216;2022-11-20T16:16:28;3.06;86.05
63704;SHT31;49851;53.684;10.216;2022-11-20T16:18:55;3.06;86.45
63704;SHT31;49851;53.684;10.216;2022-11-20T16:21:20;3.05;86.43
63704;SHT31;49851;53.684;10.216;2022-11-20T16:23:45;3.03;86.34
63704;SHT31;49851;53.684;10.216;2022-11-20T16:26:13;3.02;86.06
63704;SHT31;49851;53.684;10.216;2022-11-20T16:28:39;2.99;86.22
63704;SHT31;49851;53.684;10.216;2022-11-20T16:31:07;2.98;86.57
63704;SHT31;49851;53.684;10.216;2022-11-20T16:33:33;2.96;86.58
63704;SHT31;49851;53.684;10.216;2022-11-20T16:36:05;2.98;86.80
63704;SHT31;49851;53.684;10.216;2022-11-20T16:38:30;2.95;86.50
63704;SHT31;49851;53.684;10.216;2022-11-20T16:40:59;2.94;86.52
63704;SHT31;49851;53.684;10.216;2022-11-20T16:43:24;2.95;86.77
63704;SHT31;49851;53.684;10.216;2022-11-20T16:45:50;2.94;86.57